createdAt,value
2018-08-30T00:00:57.637Z,56.23
2018-08-30T00:03:27.656Z,56.70
2018-08-30T00:05:57.899Z,58.97
2018-08-30T00:08:28.173Z,59.53
2018-08-30T00:10:59.110Z,57.53
2018-08-30T00:13:30.850Z,62.93
2018-08-30T00:16:01.130Z,62.00
2018-08-30T00:18:31.209Z,57.57
2018-08-30T00:21:01.279Z,59.43
2018-08-30T00:23:31.919Z,58.40
2018-08-30T00:26:02.760Z,54.57
2018-08-30T00:28:33.134Z,60.40
2018-08-30T00:31:04.341Z,52.47
2018-08-30T00:33:36.722Z,56.60
2018-08-30T00:36:07.185Z,56.30
2018-08-30T00:38:37.682Z,56.93
2018-08-30T00:41:08.913Z,55.27
2018-08-30T00:43:39.550Z,56.97
2018-08-30T00:46:10.502Z,55.73
2018-08-30T00:48:40.914Z,62.33
2018-08-30T00:51:11.299Z,67.63
2018-08-30T00:53:41.354Z,59.33
2018-08-30T00:56:11.848Z,61.07
2018-08-30T00:58:42.070Z,57.53
2018-08-30T01:01:12.224Z,56.80
2018-08-30T01:03:42.430Z,58.17
2018-08-30T01:06:12.408Z,58.40
2018-08-30T01:08:42.748Z,57.07
2018-08-30T01:11:12.946Z,57.50
2018-08-30T01:13:45.921Z,62.30
2018-08-30T01:16:16.133Z,56.70
2018-08-30T01:18:46.596Z,59.47
2018-08-30T01:21:16.989Z,61.57
2018-08-30T01:23:47.118Z,59.73
2018-08-30T01:26:17.509Z,59.67
2018-08-30T01:28:48.650Z,57.90
2018-08-30T01:31:18.856Z,57.60
2018-08-30T01:33:49.491Z,58.43
2018-08-30T01:36:19.672Z,58.17
2018-08-30T01:38:50.231Z,59.27
2018-08-30T01:41:21.386Z,60.07
2018-08-30T01:43:51.831Z,60.40
2018-08-30T01:46:22.459Z,61.57
2018-08-30T01:48:52.662Z,56.80
2018-08-30T01:51:22.879Z,56.57
2018-08-30T01:53:53.046Z,55.40
2018-08-30T01:56:23.325Z,53.63
2018-08-30T01:58:53.545Z,56.60
2018-08-30T02:01:23.752Z,60.87
2018-08-30T02:03:54.025Z,54.23
2018-08-30T02:06:25.946Z,53.47
2018-08-30T02:08:55.879Z,55.43
2018-08-30T02:11:25.831Z,58.37
2018-08-30T02:13:55.804Z,62.37
2018-08-30T02:16:25.892Z,57.03
2018-08-30T02:18:56.249Z,57.17
2018-08-30T02:21:26.453Z,55.10
2018-08-30T02:23:56.721Z,54.17
2018-08-30T02:26:27.243Z,57.87
2018-08-30T02:28:57.520Z,57.43
2018-08-30T02:31:28.015Z,55.73
2018-08-30T02:33:58.427Z,53.93
2018-08-30T02:36:28.727Z,54.93
2018-08-30T02:38:58.900Z,55.07
2018-08-30T02:41:29.218Z,59.17
2018-08-30T02:43:59.725Z,56.73
2018-08-30T02:46:29.770Z,56.23
2018-08-30T02:48:59.916Z,57.37
2018-08-30T02:51:30.330Z,56.07
2018-08-30T02:54:00.939Z,58.93
2018-08-30T02:56:31.346Z,57.53
2018-08-30T02:59:01.907Z,57.30
2018-08-30T03:01:32.582Z,59.67
2018-08-30T03:04:03.327Z,53.83
2018-08-30T03:06:33.416Z,54.10
2018-08-30T03:09:03.578Z,61.67
2018-08-30T03:11:34.162Z,57.73
2018-08-30T03:14:04.552Z,57.53
2018-08-30T03:16:34.925Z,55.20
2018-08-30T03:19:11.590Z,54.90
2018-08-30T03:21:41.653Z,58.87
2018-08-30T03:24:12.058Z,58.80
2018-08-30T03:26:42.102Z,55.17
2018-08-30T03:29:12.502Z,57.87
2018-08-30T03:31:43.041Z,57.93
2018-08-30T03:34:13.023Z,56.80
2018-08-30T03:36:42.965Z,60.27
2018-08-30T03:39:13.377Z,59.33
2018-08-30T03:41:43.886Z,57.57
2018-08-30T03:44:15.179Z,54.90
2018-08-30T03:46:45.422Z,56.07
2018-08-30T03:49:15.640Z,55.17
2018-08-30T03:51:46.021Z,58.03
2018-08-30T03:54:15.967Z,56.17
2018-08-30T03:56:47.067Z,55.97
2018-08-30T03:59:17.147Z,56.30
2018-08-30T04:01:47.318Z,54.77
2018-08-30T04:04:19.575Z,55.40
2018-08-30T04:06:49.570Z,58.43
2018-08-30T04:09:20.410Z,58.00
2018-08-30T04:11:50.761Z,54.17
2018-08-30T04:14:20.981Z,57.90
2018-08-30T04:16:51.154Z,57.03
2018-08-30T04:19:21.399Z,59.83
2018-08-30T04:21:51.651Z,54.73
2018-08-30T04:24:22.169Z,56.60
2018-08-30T04:26:52.457Z,52.80
2018-08-30T04:29:22.891Z,55.53
2018-08-30T04:31:53.292Z,59.27
2018-08-30T04:34:23.304Z,55.47
2018-08-30T04:36:53.707Z,54.77
2018-08-30T04:39:24.735Z,55.50
2018-08-30T04:41:55.372Z,56.90
2018-08-30T04:44:25.419Z,52.37
2018-08-30T04:46:55.545Z,56.57
2018-08-30T04:49:26.356Z,57.63
2018-08-30T04:51:56.836Z,56.37
2018-08-30T04:54:26.849Z,54.83
2018-08-30T04:56:57.780Z,57.10
2018-08-30T04:59:28.827Z,63.43
2018-08-30T05:02:01.553Z,55.77
2018-08-30T05:04:32.079Z,54.90
2018-08-30T05:07:02.780Z,56.33
2018-08-30T05:09:32.871Z,58.03
2018-08-30T05:12:04.372Z,58.30
2018-08-30T05:14:34.614Z,55.57
2018-08-30T05:17:05.140Z,54.33
2018-08-30T05:19:35.664Z,58.87
2018-08-30T05:22:07.324Z,54.00
2018-08-30T05:24:37.456Z,52.60
2018-08-30T05:27:07.953Z,55.33
2018-08-30T05:29:38.191Z,57.37
2018-08-30T05:32:08.884Z,57.83
2018-08-30T05:34:39.191Z,54.53
2018-08-30T05:37:09.639Z,54.40
2018-08-30T05:39:46.648Z,55.53
2018-08-30T05:42:20.012Z,59.20
2018-08-30T05:44:50.495Z,56.17
2018-08-30T05:47:21.022Z,57.40
2018-08-30T05:49:51.394Z,56.60
2018-08-30T05:52:22.148Z,55.80
2018-08-30T05:54:54.282Z,55.23
2018-08-30T05:57:24.958Z,56.20
2018-08-30T05:59:55.583Z,50.80
2018-08-30T06:02:28.072Z,52.10
2018-08-30T06:04:58.772Z,51.07
2018-08-30T06:07:29.801Z,56.50
2018-08-30T06:10:00.526Z,54.10
2018-08-30T06:12:32.722Z,54.17
2018-08-30T06:15:03.878Z,53.27
2018-08-30T06:17:34.268Z,55.20
2018-08-30T06:20:04.318Z,54.77
2018-08-30T06:22:34.853Z,54.20
2018-08-30T06:25:05.075Z,54.00
2018-08-30T06:27:35.750Z,54.07
2018-08-30T06:30:06.650Z,53.90
2018-08-30T06:32:37.016Z,56.80
2018-08-30T06:35:07.121Z,57.60
2018-08-30T06:37:37.830Z,52.07
2018-08-30T06:40:08.935Z,55.57
2018-08-30T06:42:39.328Z,55.80
2018-08-30T06:45:09.777Z,56.67
2018-08-30T06:47:39.726Z,56.17
2018-08-30T06:50:10.066Z,55.73
2018-08-30T06:52:40.532Z,59.97
2018-08-30T06:55:11.632Z,55.63
2018-08-30T06:57:41.794Z,56.83
2018-08-30T07:00:13.104Z,58.77
2018-08-30T07:02:43.151Z,61.53
2018-08-30T07:05:13.279Z,56.47
2018-08-30T07:07:43.722Z,60.13
2018-08-30T07:10:13.968Z,59.60
2018-08-30T07:12:44.819Z,56.87
2018-08-30T07:15:14.983Z,59.07
2018-08-30T07:17:45.146Z,58.37
2018-08-30T07:20:15.155Z,61.37
2018-08-30T07:22:45.510Z,60.23
2018-08-30T07:25:16.489Z,55.80
2018-08-30T07:27:47.576Z,57.83
2018-08-30T07:30:19.264Z,63.30
2018-08-30T07:32:50.266Z,61.10
2018-08-30T07:35:20.538Z,65.73
2018-08-30T07:37:50.699Z,62.40
2018-08-30T07:40:21.295Z,60.20
2018-08-30T07:42:51.583Z,59.90
2018-08-30T07:45:22.028Z,60.10
2018-08-30T07:47:52.984Z,62.97
2018-08-30T07:50:23.395Z,60.60
2018-08-30T07:52:55.013Z,59.70
2018-08-30T07:55:25.810Z,64.83
2018-08-30T07:57:56.280Z,61.40
2018-08-30T08:00:27.273Z,62.77
2018-08-30T08:02:58.293Z,63.60
2018-08-30T08:05:29.630Z,62.13
2018-08-30T08:07:59.841Z,61.47
2018-08-30T08:10:30.271Z,63.80
2018-08-30T08:13:01.238Z,66.47
2018-08-30T08:15:31.653Z,62.33
2018-08-30T08:18:02.028Z,60.37
2018-08-30T08:20:32.122Z,60.43
2018-08-30T08:23:02.429Z,62.03
2018-08-30T08:25:33.887Z,61.30
2018-08-30T08:28:04.248Z,62.93
2018-08-30T08:30:34.966Z,61.23
2018-08-30T08:33:05.288Z,61.77
2018-08-30T08:35:35.355Z,70.50
2018-08-30T08:38:06.390Z,62.83
2018-08-30T08:40:36.438Z,62.13
2018-08-30T08:43:06.687Z,62.30
2018-08-30T08:45:36.862Z,63.43
2018-08-30T08:48:07.467Z,63.53
2018-08-30T08:50:39.055Z,66.60
2018-08-30T08:53:09.623Z,62.80
2018-08-30T08:55:40.153Z,61.77
2018-08-30T08:58:10.437Z,62.50
2018-08-30T09:00:40.647Z,63.37
2018-08-30T09:03:11.936Z,65.03
2018-08-30T09:05:42.064Z,66.03
2018-08-30T09:08:12.472Z,64.13
2018-08-30T09:10:42.639Z,63.17
2018-08-30T09:13:12.892Z,60.40
2018-08-30T09:15:42.935Z,60.80
2018-08-30T09:18:13.242Z,62.60
2018-08-30T09:20:45.402Z,64.17
2018-08-30T09:23:15.523Z,61.83
2018-08-30T09:25:46.591Z,61.47
2018-08-30T09:28:16.991Z,64.13
2018-08-30T09:30:47.194Z,65.40
2018-08-30T09:33:19.108Z,65.07
2018-08-30T09:35:49.214Z,65.93
2018-08-30T09:38:19.467Z,62.40
2018-08-30T09:40:49.685Z,66.33
2018-08-30T09:43:20.255Z,66.43
2018-08-30T09:45:50.729Z,65.57
2018-08-30T09:48:21.025Z,65.83
2018-08-30T09:50:52.174Z,63.87
2018-08-30T09:53:23.335Z,65.10
2018-08-30T09:55:53.467Z,63.07
2018-08-30T09:58:24.413Z,62.80
2018-08-30T10:01:06.145Z,64.10
2018-08-30T10:03:36.360Z,62.67
2018-08-30T10:06:06.658Z,66.67
2018-08-30T10:08:38.655Z,61.73
2018-08-30T10:11:08.914Z,62.07
2018-08-30T10:13:39.209Z,65.13
2018-08-30T10:16:09.438Z,65.70
2018-08-30T10:18:40.634Z,60.87
2018-08-30T10:21:10.878Z,62.53
2018-08-30T10:23:40.966Z,64.13
2018-08-30T10:26:11.764Z,68.73
2018-08-30T10:28:41.963Z,64.30
2018-08-30T10:31:12.444Z,63.97
2018-08-30T10:33:42.588Z,62.43
2018-08-30T10:36:12.763Z,63.73
2018-08-30T10:38:43.075Z,62.37
2018-08-30T10:41:13.917Z,64.57
2018-08-30T10:43:44.009Z,66.03
2018-08-30T10:46:14.452Z,64.17
2018-08-30T10:48:45.218Z,63.83
2018-08-30T10:51:15.800Z,64.13
2018-08-30T10:53:46.352Z,68.93
2018-08-30T10:59:00.374Z,65.60
2018-08-30T11:01:30.648Z,72.83
2018-08-30T11:04:00.920Z,62.87
2018-08-30T11:06:31.775Z,67.93
2018-08-30T11:09:02.040Z,64.90
2018-08-30T11:11:32.367Z,62.80
2018-08-30T11:14:03.131Z,64.57
2018-08-30T11:16:34.459Z,65.70
2018-08-30T11:19:05.320Z,67.00
2018-08-30T11:21:36.410Z,65.80
2018-08-30T11:24:10.345Z,67.33
2018-08-30T11:26:41.791Z,65.27
2018-08-30T11:29:12.565Z,66.53
2018-08-30T11:31:43.831Z,69.47
2018-08-30T11:34:13.854Z,68.67
2018-08-30T11:36:44.916Z,70.07
2018-08-30T11:39:15.135Z,67.37
2018-08-30T11:41:45.377Z,68.60
2018-08-30T11:44:16.375Z,68.23
2018-08-30T11:46:47.308Z,68.77
2018-08-30T11:49:17.948Z,68.13
2018-08-30T11:51:48.841Z,68.70
2018-08-30T11:54:19.013Z,67.20
2018-08-30T11:56:49.822Z,71.87
2018-08-30T11:59:23.754Z,72.43
2018-08-30T12:01:55.119Z,68.30
2018-08-30T12:04:25.318Z,70.87
2018-08-30T12:06:56.547Z,71.27
2018-08-30T12:09:26.610Z,73.10
2018-08-30T12:11:57.445Z,75.10
2018-08-30T12:14:28.382Z,74.27
2018-08-30T12:17:00.322Z,71.40
2018-08-30T12:19:33.310Z,71.73
2018-08-30T12:22:04.276Z,71.07
2018-08-30T12:24:35.243Z,70.43
2018-08-30T12:27:06.124Z,71.93
2018-08-30T12:29:36.703Z,71.50
2018-08-30T12:32:07.470Z,70.60
2018-08-30T12:34:37.827Z,71.60
2018-08-30T12:37:08.672Z,69.20
2018-08-30T12:39:39.916Z,75.13
2018-08-30T12:42:11.421Z,72.37
2018-08-30T12:44:41.704Z,72.10
2018-08-30T12:47:12.593Z,69.83
2018-08-30T12:49:43.685Z,69.53
2018-08-30T12:52:14.142Z,75.23
2018-08-30T12:54:44.241Z,76.03
2018-08-30T12:57:15.600Z,73.20
2018-08-30T12:59:46.048Z,70.93
2018-08-30T13:02:16.388Z,68.87
2018-08-30T13:04:46.806Z,73.30
2018-08-30T13:07:16.993Z,71.73
2018-08-30T13:09:47.778Z,74.90
2018-08-30T13:12:18.143Z,75.20
2018-08-30T13:14:48.264Z,71.40
2018-08-30T13:17:18.460Z,74.53
2018-08-30T13:19:48.722Z,73.30
2018-08-30T13:22:19.108Z,71.43
2018-08-30T13:24:49.510Z,70.33
2018-08-30T13:27:19.764Z,73.53
2018-08-30T13:29:50.298Z,76.03
2018-08-30T13:32:20.558Z,70.10
2018-08-30T13:34:52.153Z,76.10
2018-08-30T13:37:23.340Z,76.83
2018-08-30T13:39:53.401Z,71.27
2018-08-30T13:42:23.495Z,71.37
2018-08-30T13:44:53.814Z,72.77
2018-08-30T13:47:24.047Z,73.00
2018-08-30T13:49:53.874Z,77.73
2018-08-30T13:52:24.255Z,71.63
2018-08-30T13:54:54.651Z,72.40
2018-08-30T13:57:25.303Z,71.67
2018-08-30T13:59:55.646Z,69.73
2018-08-30T14:02:25.604Z,71.17
2018-08-30T14:04:56.873Z,71.50
2018-08-30T14:07:27.073Z,74.77
2018-08-30T14:09:57.176Z,70.43
2018-08-30T14:12:27.286Z,73.77
2018-08-30T14:14:57.367Z,72.50
2018-08-30T14:17:27.023Z,77.47
2018-08-30T14:19:57.391Z,78.07
2018-08-30T14:22:27.677Z,76.57
2018-08-30T14:24:57.993Z,75.00
2018-08-30T14:27:28.201Z,72.40
2018-08-30T14:29:58.421Z,73.63
2018-08-30T14:32:28.656Z,75.40
2018-08-30T14:34:58.854Z,73.57
2018-08-30T14:37:29.851Z,75.50
2018-08-30T14:40:00.365Z,75.00
2018-08-30T14:42:31.013Z,74.27
2018-08-30T14:45:04.178Z,75.67
2018-08-30T14:47:35.277Z,77.37
2018-08-30T14:50:05.415Z,74.77
2018-08-30T14:52:35.990Z,77.50
2018-08-30T14:55:06.783Z,76.60
2018-08-30T14:57:38.341Z,76.77
2018-08-30T15:00:08.796Z,75.63
2018-08-30T15:02:39.530Z,75.60
2018-08-30T15:05:11.998Z,77.93
2018-08-30T15:07:42.890Z,73.13
2018-08-30T15:10:13.170Z,76.23
2018-08-30T15:12:45.861Z,78.43
2018-08-30T15:15:16.264Z,80.00
2018-08-30T15:17:46.692Z,77.37
2018-08-30T15:20:18.251Z,80.37
2018-08-30T15:22:49.023Z,78.73
2018-08-30T15:25:22.444Z,78.10
2018-08-30T15:27:52.521Z,76.73
2018-08-30T15:30:23.353Z,79.03
2018-08-30T15:32:54.292Z,76.20
2018-08-30T15:35:24.981Z,79.50
2018-08-30T15:37:55.700Z,81.30
2018-08-30T15:40:26.030Z,80.53
2018-08-30T15:42:57.090Z,80.67
2018-08-30T15:45:27.543Z,76.97
2018-08-30T15:47:57.736Z,76.43
2018-08-30T15:50:27.769Z,79.03
2018-08-30T15:52:58.807Z,79.90
2018-08-30T15:55:29.567Z,76.57
2018-08-30T15:58:00.669Z,75.33
2018-08-30T16:00:31.362Z,74.57
2018-08-30T16:03:02.196Z,74.63
2018-08-30T16:05:32.400Z,77.17
2018-08-30T16:08:04.004Z,76.67
2018-08-30T16:10:37.043Z,78.17
2018-08-30T16:13:08.310Z,76.77
2018-08-30T16:15:38.906Z,74.77
2018-08-30T16:18:09.534Z,72.67
2018-08-30T16:20:41.161Z,75.90
2018-08-30T16:23:24.156Z,74.90
2018-08-30T16:25:54.725Z,75.40
2018-08-30T16:28:27.514Z,79.37
2018-08-30T16:30:58.175Z,81.80
2018-08-30T16:33:28.973Z,76.33
2018-08-30T16:35:59.495Z,75.27
2018-08-30T16:38:29.591Z,75.50
2018-08-30T16:40:59.817Z,76.47
2018-08-30T16:43:29.884Z,78.73
2018-08-30T16:46:00.251Z,79.17
2018-08-30T16:48:30.326Z,76.63
2018-08-30T16:51:02.054Z,76.17
2018-08-30T16:53:33.041Z,77.33
2018-08-30T16:56:03.381Z,76.80
2018-08-30T16:58:33.932Z,81.47
2018-08-30T17:01:03.979Z,80.50
2018-08-30T17:03:34.338Z,77.33
2018-08-30T17:06:04.667Z,83.33
2018-08-30T17:08:35.289Z,84.13
2018-08-30T17:11:05.833Z,74.03
2018-08-30T17:13:36.056Z,80.07
2018-08-30T17:16:06.955Z,77.03
2018-08-30T17:18:38.426Z,73.27
2018-08-30T17:21:08.414Z,76.70
2018-08-30T17:23:39.200Z,81.10
2018-08-30T17:26:09.144Z,75.50
2018-08-30T17:28:40.256Z,77.70
2018-08-30T17:31:12.107Z,73.77
2018-08-30T17:33:42.006Z,76.33
2018-08-30T17:36:12.506Z,75.80
2018-08-30T17:38:49.310Z,76.30
2018-08-30T17:41:19.816Z,77.03
2018-08-30T17:43:50.036Z,78.57
2018-08-30T17:46:20.696Z,83.03
2018-08-30T17:48:51.001Z,78.50
2018-08-30T17:51:21.158Z,76.80
2018-08-30T17:53:51.433Z,77.00
2018-08-30T17:56:21.793Z,75.73
2018-08-30T17:58:52.118Z,76.57
2018-08-30T18:01:28.917Z,75.33
2018-08-30T18:03:58.802Z,75.57
2018-08-30T18:06:29.117Z,77.37
2018-08-30T18:09:00.279Z,74.97
2018-08-30T18:11:31.125Z,79.37
2018-08-30T18:14:01.639Z,74.97
2018-08-30T18:16:31.810Z,76.20
2018-08-30T18:19:02.308Z,77.83
2018-08-30T18:21:32.646Z,77.13
2018-08-30T18:24:02.826Z,75.40
2018-08-30T18:26:33.104Z,74.50
2018-08-30T18:29:03.255Z,74.00
2018-08-30T18:31:34.394Z,74.60
2018-08-30T18:34:04.324Z,78.27
2018-08-30T18:36:34.460Z,75.23
2018-08-30T18:39:06.445Z,76.13
2018-08-30T18:41:36.355Z,74.93
2018-08-30T18:44:07.416Z,75.13
2018-08-30T18:46:39.206Z,74.33
2018-08-30T18:49:10.099Z,72.77
2018-08-30T18:51:40.168Z,74.83
2018-08-30T18:54:10.514Z,70.93
2018-08-30T18:56:41.555Z,73.33
2018-08-30T18:59:11.848Z,72.60
2018-08-30T19:01:42.118Z,75.33
2018-08-30T19:04:12.140Z,73.80
2018-08-30T19:06:42.378Z,72.27
2018-08-30T19:09:13.081Z,72.73
2018-08-30T19:11:43.459Z,68.27
2018-08-30T19:14:13.704Z,73.73
2018-08-30T19:16:49.011Z,69.77
2018-08-30T19:19:21.828Z,72.13
2018-08-30T19:21:52.101Z,70.50
2018-08-30T19:24:28.062Z,73.87
2018-08-30T19:26:58.431Z,78.10
2018-08-30T19:29:29.682Z,69.70
2018-08-30T19:32:00.039Z,68.73
2018-08-30T19:34:30.372Z,69.80
2018-08-30T19:37:01.029Z,67.40
2018-08-30T19:39:31.312Z,76.60
2018-08-30T19:42:01.431Z,73.00
2018-08-30T19:44:32.461Z,68.73
2018-08-30T19:47:02.455Z,68.07
2018-08-30T19:49:33.037Z,69.13
2018-08-30T19:52:03.321Z,70.67
2018-08-30T19:54:34.054Z,70.83
2018-08-30T19:57:04.290Z,71.33
2018-08-30T19:59:34.649Z,71.13
2018-08-30T20:02:05.085Z,67.57
2018-08-30T20:04:35.679Z,69.97
2018-08-30T20:07:06.543Z,66.77
2018-08-30T20:09:37.571Z,70.83
2018-08-30T20:12:08.802Z,66.97
2018-08-30T20:14:39.952Z,65.57
2018-08-30T20:17:10.482Z,68.80
2018-08-30T20:19:42.821Z,69.87
2018-08-30T20:22:13.712Z,73.17
2018-08-30T20:24:45.317Z,66.20
2018-08-30T20:27:16.519Z,67.97
2018-08-30T20:29:46.887Z,69.27
2018-08-30T20:32:18.249Z,69.63
2018-08-30T20:34:49.579Z,75.60
2018-08-30T20:37:20.212Z,73.40
2018-08-30T20:39:51.008Z,69.87
2018-08-30T20:42:21.260Z,70.83
2018-08-30T20:44:52.202Z,74.47
2018-08-30T20:47:22.974Z,82.02
2018-08-30T20:49:57.430Z,81.47
2018-08-30T20:52:27.829Z,69.63
2018-08-30T20:54:58.494Z,71.93
2018-08-30T20:57:29.248Z,70.73
2018-08-30T20:59:59.301Z,70.97
2018-08-30T21:02:29.664Z,70.77
2018-08-30T21:04:59.767Z,69.57
2018-08-30T21:07:30.787Z,71.07
2018-08-30T21:10:01.214Z,74.30
2018-08-30T21:12:31.402Z,72.70
2018-08-30T21:15:01.523Z,72.07
2018-08-30T21:17:31.740Z,66.10
2018-08-30T21:20:02.276Z,69.07
2018-08-30T21:22:32.326Z,66.93
2018-08-30T21:25:03.314Z,74.30
2018-08-30T21:27:34.555Z,68.90
2018-08-30T21:30:05.445Z,67.83
2018-08-30T21:32:35.494Z,69.23
2018-08-30T21:35:05.657Z,69.47
2018-08-30T21:37:36.212Z,70.83
2018-08-30T21:40:09.198Z,71.40
2018-08-30T21:42:39.599Z,69.80
2018-08-30T21:45:10.366Z,68.93
2018-08-30T21:47:40.590Z,65.63
2018-08-30T21:50:10.821Z,72.07
2018-08-30T21:52:41.025Z,70.30
2018-08-30T21:55:11.428Z,65.67
2018-08-30T21:57:41.370Z,69.93
2018-08-30T22:00:11.738Z,67.03
2018-08-30T22:02:41.873Z,69.30
2018-08-30T22:05:12.118Z,69.17
2018-08-30T22:07:42.169Z,68.23
2018-08-30T22:10:12.433Z,64.33
2018-08-30T22:12:42.532Z,68.93
2018-08-30T22:15:12.620Z,67.73
2018-08-30T22:17:43.116Z,68.43
2018-08-30T22:20:13.118Z,72.00
2018-08-30T22:22:44.500Z,67.70
2018-08-30T22:25:14.586Z,64.77
2018-08-30T22:27:44.698Z,64.10
2018-08-30T22:30:14.687Z,67.90
2018-08-30T22:32:44.830Z,65.90
2018-08-30T22:35:15.275Z,66.60
2018-08-30T22:37:46.143Z,63.80
2018-08-30T22:40:16.432Z,67.80
2018-08-30T22:42:46.659Z,66.50
2018-08-30T22:45:16.932Z,64.97
2018-08-30T22:47:47.119Z,69.90
2018-08-30T22:50:17.259Z,68.17
2018-08-30T22:52:47.326Z,65.40
2018-08-30T22:55:17.560Z,65.57
2018-08-30T22:57:47.818Z,66.87
2018-08-30T23:00:17.863Z,65.20
2018-08-30T23:02:48.083Z,65.37
2018-08-30T23:05:18.143Z,64.03
2018-08-30T23:07:48.667Z,67.20
2018-08-30T23:10:18.883Z,62.17
2018-08-30T23:12:49.926Z,66.93
2018-08-30T23:15:20.006Z,65.50
2018-08-30T23:17:50.039Z,66.43
2018-08-30T23:20:20.259Z,60.03
2018-08-30T23:22:50.457Z,63.80
2018-08-30T23:25:20.529Z,63.57
2018-08-30T23:27:50.739Z,65.33
2018-08-30T23:30:20.989Z,64.33
2018-08-30T23:32:51.184Z,65.07
2018-08-30T23:35:21.315Z,66.87
2018-08-30T23:37:52.601Z,61.57
2018-08-30T23:40:25.029Z,64.33
2018-08-30T23:42:55.512Z,62.93
2018-08-30T23:45:26.427Z,65.53
2018-08-30T23:47:56.354Z,61.00
2018-08-30T23:50:26.434Z,61.70
2018-08-30T23:52:56.946Z,61.67
2018-08-30T23:55:27.292Z,66.23
2018-08-30T23:58:13.983Z,60.87
